TFM - Tactical Decision Aid
ID: Runway Winds: CIG/VIS Threshold:

KLNS - Lancaster Arpt, PA, US

Updated at: 1852 UTC 26 Oct 2021
Latest TAF at: 1740 UTC 26 Oct 2021

TAF Board

Time1753Z 26/19Z 26/20Z 26/21Z 26/22Z 26/23Z 27/00Z 27/01Z 27/02Z 27/03Z 27/04Z 27/05Z 27/06Z 27/07Z>>
Type OBS PRVL PRVL PRVL PRVL PRVL PRVL PRVL PRVL PRVL PRVL PRVL PRVL PRVL
VIS 10 >6 >6 >6 5 5 5 5 5 5 5 >6 >6 >6
CIG 21 20 20 20 25 25 25 25 25 25 25 35 35 35
Cover OVC OVC OVC OVC OVC OVC OVC OVC OVC OVC OVC BKN BKN BKN
FltCat MVFR MVFR MVFR MVFR MVFR MVFR MVFR MVFR MVFR MVFR MVFR VFR VFR VFR
WX -- -RA -RA -RA -SHRA BR -SHRA BR -SHRA BR -SHRA BR -SHRA BR -SHRA BR -SHRA BR -- -- --
WDir 280 290 290 290 310 310 310 310 310 310 310 330 330 330
WSpd 23 20 20 20 18 18 18 18 18 18 18 15 15 15
WGst 29 32 32 32 35 35 35 35 35 35 35 25 25 25

TDA Impact Legend

  None Marginal Slight Moderate High
Visibility (sm) >5 3≤X≤5 2≤X<3 0.5≤X<2 <0.5
Ceiling (100 ft) >30 10≤X≤30 7≤X<10 2≤X<7 <2
Wind Speed (kt) <15 15≤X<25 25≤X<30 ≥30
Wind Gust (kt) <15 15≤X<25 25≤X<35 ≥35
Weather No Wx Reported VCTS -TS,-FZRA TS,FZRA +TS,+FZRA
TAF
KLNS 261740Z 2618/2718 29020G32KT P6SM -RA BKN020 OVC040
  FM262200 31018G35KT 5SM -SHRA BR OVC025
  FM270500 33015G25KT P6SM BKN035


METAR
KLNS 261753Z 28023G29KT 10SM OVC021 15/09 A2945 RMK AO2 PK WND 29032/1714 RAB02E25 SLP971 P0000 60000 T01500094 10183 20150 55007
KLNS 261710Z 29020G30KT 9SM -RA BKN020 BKN032 OVC041 16/11 A2944 RMK AO2 PK WND 28030/1702 RAB02 P0000 T01560111
KLNS 261653Z 29014KT 10SM SCT028 BKN035 OVC043 18/12 A2943 RMK AO2 SLP966 T01780122
KLNS 261629Z 29018G24KT 10SM BKN027 OVC034 18/12 A2944 RMK AO2 T01780122
KLNS 261610Z 29017G21KT 10SM SCT023 OVC031 18/13 A2945 RMK AO2 T01780128
KLNS 261553Z 29016G21KT 10SM FEW020 BKN025 OVC032 18/13 A2945 RMK AO2 SLP971 T01830133